Rockwell, Illinois
Current Conditions -  °F | °C
As of 6:55 AM on Sunday 23 Nov 2014 (Local Time) from KVYS Reporting Station
Overcast Overcast  
Wind Chill: 44°   Ceiling: 4500
Heat Index: 49°   Visibility: 10mi
Dew Point: 43°   Wind: 12mph
Humidity: 79%   Direction: 180°S
Pressure: 29.74"   Gusts: NA
Location:  41.3955°N, 89.0957°W
Report Text: KVYS 231255Z AUTO 18010KT 10SM OVC045 09/06 A2974 RMK AO2 T00940060
Loading
Personal Weather Stations






























Interactive Weather Map New forecast layout! Learn more

10-Day Weather Forecast

Advertisements
Track Severe Weather on mobile